createdAt,value
2022-10-15T00:00:43.403Z,100.00
2022-10-15T00:03:10.071Z,100.00
2022-10-15T00:05:38.347Z,100.00
2022-10-15T00:08:06.242Z,100.00
2022-10-15T00:10:33.796Z,100.00
2022-10-15T00:15:37.122Z,100.00
2022-10-15T00:18:03.892Z,100.00
2022-10-15T00:20:34.213Z,100.00
2022-10-15T00:23:01.007Z,100.00
2022-10-15T00:25:28.568Z,100.00
2022-10-15T00:27:55.447Z,100.00
2022-10-15T00:30:22.165Z,100.00
2022-10-15T00:32:48.910Z,100.00
2022-10-15T00:35:15.611Z,100.00
2022-10-15T00:37:44.122Z,100.00
2022-10-15T00:40:15.109Z,100.00
2022-10-15T00:42:41.778Z,100.00
2022-10-15T00:45:13.099Z,100.00
2022-10-15T00:47:46.684Z,100.00
2022-10-15T00:50:21.675Z,100.00
2022-10-15T00:53:09.398Z,100.00
2022-10-15T00:55:40.747Z,100.00
2022-10-15T00:58:16.722Z,100.00
2022-10-15T01:00:46.988Z,100.00
2022-10-15T01:03:13.761Z,100.00
2022-10-15T01:05:42.968Z,100.00
2022-10-15T01:08:09.594Z,100.00
2022-10-15T01:10:55.125Z,100.00
2022-10-15T01:14:20.479Z,100.00
2022-10-15T01:16:50.610Z,100.00
2022-10-15T01:19:48.186Z,100.00
2022-10-15T01:22:46.399Z,100.00
2022-10-15T01:25:25.069Z,100.00
2022-10-15T01:27:57.621Z,100.00
2022-10-15T01:30:25.098Z,100.00
2022-10-15T01:33:10.649Z,100.00
2022-10-15T01:35:46.275Z,100.00
2022-10-15T01:38:28.842Z,100.00
2022-10-15T01:40:58.968Z,100.00
2022-10-15T01:43:58.591Z,100.00
2022-10-15T01:46:41.170Z,100.00
2022-10-15T01:49:11.181Z,100.00
2022-10-15T01:51:40.187Z,100.00
2022-10-15T01:54:11.310Z,100.00
2022-10-15T01:56:39.553Z,100.00
2022-10-15T01:59:08.161Z,100.00
2022-10-15T02:01:35.004Z,100.00
2022-10-15T02:04:01.875Z,100.00
2022-10-15T02:06:37.118Z,100.00
2022-10-15T02:09:58.009Z,100.00
2022-10-15T02:12:49.275Z,100.00
2022-10-15T02:15:44.469Z,100.00
2022-10-15T02:18:45.858Z,100.00
2022-10-15T02:21:18.347Z,100.00
2022-10-15T02:24:11.485Z,100.00
2022-10-15T02:26:40.234Z,100.00
2022-10-15T02:29:11.089Z,100.00
2022-10-15T02:31:41.040Z,100.00
2022-10-15T02:34:11.424Z,100.00
2022-10-15T02:36:42.235Z,100.00
2022-10-15T02:39:12.649Z,100.00
2022-10-15T02:41:59.797Z,100.00
2022-10-15T02:44:27.227Z,100.00
2022-10-15T02:46:54.652Z,100.00
2022-10-15T02:49:21.441Z,100.00
2022-10-15T02:51:48.049Z,100.00
2022-10-15T02:54:14.975Z,100.00
2022-10-15T02:56:42.865Z,100.00
2022-10-15T02:59:10.576Z,100.00
2022-10-15T03:01:38.598Z,100.00
2022-10-15T03:04:05.460Z,100.00
2022-10-15T03:06:32.106Z,100.00
2022-10-15T03:08:59.507Z,100.00
2022-10-15T03:11:26.111Z,100.00
2022-10-15T03:13:53.864Z,100.00
2022-10-15T03:16:20.519Z,100.00
2022-10-15T03:18:48.288Z,100.00
2022-10-15T03:21:14.958Z,100.00
2022-10-15T03:23:42.332Z,100.00
2022-10-15T03:26:09.759Z,100.00
2022-10-15T03:28:36.387Z,100.00
2022-10-15T03:31:03.095Z,100.00
2022-10-15T03:33:30.024Z,100.00
2022-10-15T03:35:57.477Z,100.00
2022-10-15T03:38:24.075Z,100.00
2022-10-15T03:40:50.659Z,100.00
2022-10-15T03:43:18.561Z,100.00
2022-10-15T03:45:45.191Z,100.00
2022-10-15T03:48:13.388Z,100.00
2022-10-15T03:50:40.069Z,100.00
2022-10-15T03:53:06.743Z,100.00
2022-10-15T03:55:33.745Z,100.00
2022-10-15T03:58:00.517Z,100.00
2022-10-15T04:00:27.434Z,100.00
2022-10-15T04:02:54.161Z,100.00
2022-10-15T04:05:20.993Z,100.00
2022-10-15T04:07:47.594Z,100.00
2022-10-15T04:10:14.294Z,100.00
2022-10-15T04:12:40.903Z,100.00
2022-10-15T04:15:07.906Z,100.00
2022-10-15T04:17:34.609Z,100.00
2022-10-15T04:20:01.352Z,100.00
2022-10-15T04:22:27.962Z,100.00
2022-10-15T04:24:54.692Z,100.00
2022-10-15T04:27:21.336Z,100.00
2022-10-15T04:29:49.203Z,100.00
2022-10-15T04:32:16.699Z,100.00
2022-10-15T04:34:43.697Z,100.00
2022-10-15T04:37:10.320Z,100.00
2022-10-15T04:39:36.909Z,100.00
2022-10-15T04:42:03.695Z,100.00
2022-10-15T04:44:30.712Z,100.00
2022-10-15T04:46:58.076Z,100.00
2022-10-15T04:49:24.787Z,100.00
2022-10-15T04:51:51.398Z,100.00
2022-10-15T04:54:21.516Z,100.00
2022-10-15T04:56:48.453Z,100.00
2022-10-15T04:59:15.055Z,100.00
2022-10-15T05:01:41.759Z,100.00
2022-10-15T05:04:13.279Z,100.00
2022-10-15T05:06:41.515Z,100.00
2022-10-15T05:09:08.177Z,100.00
2022-10-15T05:11:37.063Z,100.00
2022-10-15T05:14:06.498Z,100.00
2022-10-15T05:16:33.907Z,100.00
2022-10-15T05:19:07.128Z,100.00
2022-10-15T05:21:35.230Z,100.00
2022-10-15T05:24:01.993Z,100.00
2022-10-15T05:26:30.059Z,100.00
2022-10-15T05:28:58.546Z,100.00
2022-10-15T05:31:28.876Z,100.00
2022-10-15T05:33:56.287Z,100.00
2022-10-15T05:36:24.357Z,100.00
2022-10-15T05:38:57.462Z,100.00
2022-10-15T05:41:25.676Z,100.00
2022-10-15T05:43:55.065Z,100.00
2022-10-15T05:46:22.799Z,100.00
2022-10-15T05:48:52.309Z,100.00
2022-10-15T05:51:19.350Z,100.00
2022-10-15T05:53:49.033Z,100.00
2022-10-15T05:56:16.216Z,100.00
2022-10-15T05:58:43.262Z,100.00
2022-10-15T06:01:12.434Z,100.00
2022-10-15T06:03:41.033Z,100.00
2022-10-15T06:06:20.868Z,100.00
2022-10-15T06:08:49.862Z,100.00
2022-10-15T06:11:17.375Z,100.00
2022-10-15T06:13:46.189Z,100.00
2022-10-15T06:16:16.632Z,100.00
2022-10-15T06:18:46.231Z,100.00
2022-10-15T06:21:13.251Z,100.00
2022-10-15T06:23:39.962Z,100.00
2022-10-15T06:26:10.610Z,100.00
2022-10-15T06:28:39.106Z,100.00
2022-10-15T06:31:07.132Z,100.00
2022-10-15T06:33:34.240Z,100.00
2022-10-15T06:36:09.607Z,100.00
2022-10-15T06:38:36.769Z,100.00
2022-10-15T06:41:07.896Z,100.00
2022-10-15T06:43:35.445Z,100.00
2022-10-15T06:46:04.114Z,100.00
2022-10-15T06:48:30.810Z,100.00
2022-10-15T06:51:00.233Z,100.00
2022-10-15T06:53:28.182Z,100.00
2022-10-15T06:56:03.387Z,100.00
2022-10-15T06:58:30.243Z,100.00
2022-10-15T07:01:06.062Z,100.00
2022-10-15T07:03:32.821Z,100.00
2022-10-15T07:06:05.372Z,100.00
2022-10-15T07:08:32.707Z,100.00
2022-10-15T07:11:02.151Z,100.00
2022-10-15T07:13:30.246Z,100.00
2022-10-15T07:15:56.890Z,100.00
2022-10-15T07:18:23.535Z,100.00
2022-10-15T07:20:50.243Z,100.00
2022-10-15T07:23:16.854Z,100.00
2022-10-15T07:25:43.976Z,100.00
2022-10-15T07:28:10.648Z,100.00
2022-10-15T07:30:37.741Z,100.00
2022-10-15T07:33:04.446Z,100.00
2022-10-15T07:35:31.096Z,100.00
2022-10-15T07:38:01.667Z,100.00
2022-10-15T07:40:28.351Z,100.00
2022-10-15T07:42:57.647Z,100.00
2022-10-15T07:45:25.263Z,100.00
2022-10-15T07:47:53.063Z,100.00
2022-10-15T07:50:20.459Z,100.00
2022-10-15T07:52:47.392Z,100.00
2022-10-15T07:55:14.812Z,100.00
2022-10-15T07:57:41.701Z,100.00
2022-10-15T08:00:09.126Z,100.00
2022-10-15T08:02:35.822Z,100.00
2022-10-15T08:05:02.548Z,100.00
2022-10-15T08:07:29.530Z,100.00
2022-10-15T08:09:56.236Z,100.00
2022-10-15T08:12:22.981Z,100.00
2022-10-15T08:14:49.723Z,100.00
2022-10-15T08:17:18.490Z,100.00
2022-10-15T08:19:45.115Z,100.00
2022-10-15T08:22:12.774Z,100.00
2022-10-15T08:24:40.196Z,100.00
2022-10-15T08:27:06.996Z,100.00
2022-10-15T08:29:33.672Z,100.00
2022-10-15T08:32:00.326Z,100.00
2022-10-15T08:34:27.255Z,100.00
2022-10-15T08:36:53.845Z,100.00
2022-10-15T08:39:20.478Z,100.00
2022-10-15T08:41:54.826Z,100.00
2022-10-15T08:44:30.498Z,100.00
2022-10-15T08:47:08.380Z,100.00
2022-10-15T08:49:44.266Z,100.00
2022-10-15T08:52:21.264Z,100.00
2022-10-15T08:54:49.068Z,100.00
2022-10-15T08:57:25.279Z,100.00
2022-10-15T09:00:02.739Z,100.00
2022-10-15T09:02:38.800Z,100.00
2022-10-15T09:05:24.374Z,100.00
2022-10-15T09:08:13.867Z,100.00
2022-10-15T09:11:05.467Z,100.00
2022-10-15T09:13:42.387Z,100.00
2022-10-15T09:16:30.297Z,100.00
2022-10-15T09:19:01.647Z,100.00
2022-10-15T09:21:30.455Z,100.00
2022-10-15T09:24:02.476Z,100.00
2022-10-15T09:27:06.883Z,100.00
2022-10-15T09:29:43.404Z,100.00
2022-10-15T09:32:33.317Z,100.00
2022-10-15T09:35:19.529Z,100.00
2022-10-15T09:38:13.344Z,100.00
2022-10-15T09:40:59.044Z,100.00
2022-10-15T09:43:35.251Z,100.00
2022-10-15T09:46:03.591Z,100.00
2022-10-15T09:48:36.308Z,100.00
2022-10-15T09:51:32.240Z,100.00
2022-10-15T09:54:06.299Z,100.00
2022-10-15T09:56:38.004Z,100.00
2022-10-15T09:59:08.829Z,100.00
2022-10-15T10:01:36.606Z,100.00
2022-10-15T10:04:18.075Z,100.00
2022-10-15T10:07:27.403Z,100.00
2022-10-15T10:09:56.686Z,97.90
2022-10-15T10:12:27.368Z,99.43
2022-10-15T10:14:59.853Z,95.45
2022-10-15T10:17:28.339Z,97.77
2022-10-15T10:20:14.860Z,97.24
2022-10-15T10:22:53.525Z,97.44
2022-10-15T10:25:30.635Z,96.46
2022-10-15T10:28:14.521Z,94.67
2022-10-15T10:31:00.276Z,95.12
2022-10-15T10:33:43.203Z,94.17
2022-10-15T10:36:28.420Z,93.09
2022-10-15T10:39:14.624Z,93.70
2022-10-15T10:41:51.535Z,95.57
2022-10-15T10:44:21.665Z,94.18
2022-10-15T10:47:06.343Z,91.01
2022-10-15T10:49:35.739Z,88.74
2022-10-15T10:52:02.352Z,88.84
2022-10-15T10:54:30.861Z,89.75
2022-10-15T10:57:00.167Z,91.01
2022-10-15T10:59:43.815Z,91.48
2022-10-15T11:02:12.348Z,88.94
2022-10-15T11:04:40.192Z,86.74
2022-10-15T11:07:18.287Z,87.44
2022-10-15T11:09:56.207Z,85.33
2022-10-15T11:12:49.804Z,84.80
2022-10-15T11:15:47.092Z,81.92
2022-10-15T11:18:31.839Z,81.69
2022-10-15T11:21:22.389Z,82.57
2022-10-15T11:23:58.941Z,82.08
2022-10-15T11:27:09.512Z,81.73
2022-10-15T11:29:44.340Z,80.49
2022-10-15T11:33:08.023Z,80.13
2022-10-15T11:36:00.322Z,77.23
2022-10-15T11:38:51.328Z,77.33
2022-10-15T11:41:59.374Z,76.54
2022-10-15T11:44:38.872Z,75.24
2022-10-15T11:47:18.666Z,75.98
2022-10-15T11:50:03.553Z,76.93
2022-10-15T11:52:48.447Z,78.14
2022-10-15T11:55:32.815Z,76.58
2022-10-15T11:58:04.504Z,77.21
2022-10-15T12:00:36.655Z,73.31
2022-10-15T12:03:25.192Z,71.42
2022-10-15T12:05:56.847Z,71.59
2022-10-15T12:08:35.484Z,71.83
2022-10-15T12:11:16.953Z,71.07
2022-10-15T12:14:08.159Z,69.82
2022-10-15T12:17:04.870Z,72.10
2022-10-15T12:19:43.065Z,70.30
2022-10-15T12:22:13.544Z,71.18
2022-10-15T12:24:51.858Z,73.48
2022-10-15T12:27:37.304Z,71.46
2022-10-15T12:30:03.968Z,73.46
2022-10-15T12:32:51.295Z,73.34
2022-10-15T12:37:52.490Z,72.67
2022-10-15T12:40:45.809Z,74.30
2022-10-15T12:43:16.572Z,74.29
2022-10-15T12:46:05.676Z,75.76
2022-10-15T12:48:38.599Z,75.37
2022-10-15T12:51:17.161Z,77.03
2022-10-15T12:53:46.098Z,73.62
2022-10-15T12:56:15.869Z,73.66
2022-10-15T12:58:51.254Z,71.35
2022-10-15T13:01:21.006Z,70.00
2022-10-15T13:03:50.610Z,67.78
2022-10-15T13:06:17.290Z,67.50
2022-10-15T13:09:24.447Z,67.17
2022-10-15T13:11:54.735Z,68.77
2022-10-15T13:14:38.334Z,67.08
2022-10-15T13:17:19.505Z,70.18
2022-10-15T13:19:59.715Z,68.08
2022-10-15T13:22:31.110Z,69.87
2022-10-15T13:24:59.007Z,69.09
2022-10-15T13:27:32.031Z,67.32
2022-10-15T13:30:08.191Z,66.75
2022-10-15T13:32:45.912Z,69.83
2022-10-15T13:35:18.778Z,69.05
2022-10-15T13:37:46.953Z,69.73
2022-10-15T13:40:25.006Z,66.93
2022-10-15T13:43:06.574Z,69.10
2022-10-15T13:45:33.957Z,67.61
2022-10-15T13:48:00.660Z,67.70
2022-10-15T13:50:29.535Z,68.06
2022-10-15T13:53:21.573Z,69.85
2022-10-15T13:55:54.764Z,68.51
2022-10-15T13:58:29.303Z,67.07
2022-10-15T14:01:04.107Z,67.30
2022-10-15T14:03:32.942Z,69.41
2022-10-15T14:06:19.756Z,69.58
2022-10-15T14:08:48.650Z,69.24
2022-10-15T14:11:16.555Z,70.74
2022-10-15T14:13:57.268Z,72.42
2022-10-15T14:16:30.669Z,71.16
2022-10-15T14:19:10.365Z,73.68
2022-10-15T14:21:42.657Z,75.51
2022-10-15T14:24:16.972Z,73.71
2022-10-15T14:26:44.455Z,73.29
2022-10-15T14:29:19.553Z,73.40
2022-10-15T14:31:48.725Z,71.48
2022-10-15T14:34:48.113Z,73.43
2022-10-15T14:37:36.254Z,74.24
2022-10-15T14:40:11.624Z,75.19
2022-10-15T14:42:44.170Z,75.00
2022-10-15T14:45:21.672Z,75.50
2022-10-15T14:48:00.326Z,73.93
2022-10-15T14:50:32.670Z,73.81
2022-10-15T14:53:01.067Z,70.21
2022-10-15T14:55:38.496Z,69.87
2022-10-15T14:58:11.569Z,68.28
2022-10-15T15:00:44.235Z,69.26
2022-10-15T15:03:15.790Z,69.14
2022-10-15T15:05:46.769Z,70.52
2022-10-15T15:08:16.384Z,70.89
2022-10-15T15:10:44.336Z,67.91
2022-10-15T15:13:28.860Z,67.08
2022-10-15T15:15:55.692Z,66.97
2022-10-15T15:18:22.486Z,68.44
2022-10-15T15:20:50.597Z,68.89
2022-10-15T15:23:23.347Z,69.61
2022-10-15T15:25:51.699Z,68.68
2022-10-15T15:28:21.302Z,69.37
2022-10-15T15:30:59.301Z,69.61
2022-10-15T15:33:28.308Z,70.79
2022-10-15T15:36:07.577Z,71.59
2022-10-15T15:41:17.343Z,73.01
2022-10-15T15:43:44.741Z,72.67
2022-10-15T15:46:11.801Z,73.81
2022-10-15T15:48:38.747Z,74.85
2022-10-15T15:51:17.411Z,74.16
2022-10-15T15:53:44.231Z,74.37
2022-10-15T15:56:11.206Z,74.74
2022-10-15T15:58:37.871Z,75.33
2022-10-15T16:01:04.549Z,75.67
2022-10-15T16:03:31.199Z,75.94
2022-10-15T16:05:57.787Z,76.88
2022-10-15T16:08:24.443Z,76.27
2022-10-15T16:10:51.199Z,77.22
2022-10-15T16:13:17.854Z,75.25
2022-10-15T16:15:44.508Z,76.50
2022-10-15T16:18:12.175Z,75.51
2022-10-15T16:20:46.343Z,72.41
2022-10-15T16:23:15.402Z,72.27
2022-10-15T16:25:42.979Z,72.21
2022-10-15T16:28:09.890Z,72.06
2022-10-15T16:30:36.530Z,72.36
2022-10-15T16:33:03.386Z,72.39
2022-10-15T16:35:30.166Z,71.89
2022-10-15T16:37:56.866Z,75.00
2022-10-15T16:40:23.585Z,75.63
2022-10-15T16:42:50.437Z,73.63
2022-10-15T16:45:17.223Z,73.99
2022-10-15T16:47:45.438Z,73.44
2022-10-15T16:50:12.591Z,72.38
2022-10-15T16:52:39.334Z,72.53
2022-10-15T16:55:07.182Z,72.80
2022-10-15T16:57:34.012Z,73.38
2022-10-15T17:00:00.877Z,73.79
2022-10-15T17:02:27.859Z,74.27
2022-10-15T17:04:54.913Z,74.90
2022-10-15T17:07:21.553Z,75.86
2022-10-15T17:12:21.136Z,76.72
2022-10-15T17:14:52.254Z,77.21
2022-10-15T17:17:19.471Z,78.11
2022-10-15T17:19:46.158Z,78.65
2022-10-15T17:22:12.828Z,79.17
2022-10-15T17:24:39.563Z,79.75
2022-10-15T17:27:06.245Z,80.46
2022-10-15T17:29:33.823Z,80.83
2022-10-15T17:32:01.923Z,82.18
2022-10-15T17:34:28.681Z,82.87
2022-10-15T17:36:56.413Z,83.48
2022-10-15T17:39:23.906Z,83.87
2022-10-15T17:41:52.073Z,84.72
2022-10-15T17:44:19.086Z,84.71
2022-10-15T17:46:45.847Z,85.67
2022-10-15T17:49:15.218Z,85.79
2022-10-15T17:51:41.951Z,86.23
2022-10-15T17:54:10.187Z,86.52
2022-10-15T17:56:40.916Z,87.43
2022-10-15T17:59:11.523Z,87.38
2022-10-15T18:01:58.861Z,87.65
2022-10-15T18:04:27.771Z,88.27
2022-10-15T18:06:54.453Z,89.00
2022-10-15T18:09:21.038Z,88.76
2022-10-15T18:11:49.176Z,89.12
2022-10-15T18:14:16.148Z,89.31
2022-10-15T18:16:43.366Z,90.10
2022-10-15T18:19:10.515Z,89.38
2022-10-15T18:21:37.143Z,88.78
2022-10-15T18:24:04.229Z,88.93
2022-10-15T18:26:30.890Z,87.77
2022-10-15T18:28:58.194Z,88.10
2022-10-15T18:31:27.975Z,87.78
2022-10-15T18:33:56.095Z,87.58
2022-10-15T18:36:25.768Z,87.88
2022-10-15T18:38:53.222Z,90.84
2022-10-15T18:41:27.348Z,95.26
2022-10-15T18:43:59.166Z,97.70
2022-10-15T18:46:27.623Z,99.90
2022-10-15T18:48:55.257Z,100.00
2022-10-15T18:51:22.968Z,100.00
2022-10-15T18:53:49.823Z,100.00
2022-10-15T18:56:17.525Z,100.00
2022-10-15T18:58:44.341Z,100.00
2022-10-15T19:01:25.020Z,100.00
2022-10-15T19:03:52.805Z,100.00
2022-10-15T19:06:24.337Z,100.00
2022-10-15T19:08:51.470Z,100.00
2022-10-15T19:11:19.392Z,100.00
2022-10-15T19:13:46.374Z,100.00
2022-10-15T19:16:13.327Z,100.00
2022-10-15T19:18:40.411Z,100.00
2022-10-15T19:21:07.474Z,100.00
2022-10-15T19:23:35.074Z,100.00
2022-10-15T19:26:01.872Z,100.00
2022-10-15T19:28:29.178Z,100.00
2022-10-15T19:31:01.457Z,100.00
2022-10-15T19:33:29.974Z,100.00
2022-10-15T19:35:56.899Z,100.00
2022-10-15T19:38:24.988Z,100.00
2022-10-15T19:40:52.852Z,100.00
2022-10-15T19:43:22.680Z,100.00
2022-10-15T19:45:50.239Z,100.00
2022-10-15T19:48:19.476Z,100.00
2022-10-15T19:50:47.521Z,100.00
2022-10-15T19:53:16.655Z,100.00
2022-10-15T19:55:44.781Z,100.00
2022-10-15T19:58:11.697Z,100.00
2022-10-15T20:00:38.372Z,100.00
2022-10-15T20:03:05.083Z,100.00
2022-10-15T20:05:31.836Z,100.00
2022-10-15T20:07:58.565Z,100.00
2022-10-15T20:10:26.404Z,100.00
2022-10-15T20:12:53.685Z,100.00
2022-10-15T20:15:20.656Z,100.00
2022-10-15T20:17:48.039Z,100.00
2022-10-15T20:20:15.149Z,100.00
2022-10-15T20:22:41.977Z,100.00
2022-10-15T20:25:09.857Z,100.00
2022-10-15T20:27:36.671Z,100.00
2022-10-15T20:30:04.596Z,100.00
2022-10-15T20:32:35.430Z,100.00
2022-10-15T20:35:04.680Z,100.00
2022-10-15T20:37:31.504Z,100.00
2022-10-15T20:39:59.995Z,100.00
2022-10-15T20:42:27.729Z,100.00
2022-10-15T20:44:54.668Z,100.00
2022-10-15T20:47:22.806Z,100.00
2022-10-15T20:49:52.936Z,100.00
2022-10-15T20:52:21.159Z,100.00
2022-10-15T20:54:47.921Z,100.00
2022-10-15T20:57:14.575Z,100.00
2022-10-15T20:59:41.410Z,100.00
2022-10-15T21:02:08.278Z,100.00
2022-10-15T21:04:34.877Z,100.00
2022-10-15T21:07:01.986Z,100.00
2022-10-15T21:09:28.734Z,100.00
2022-10-15T21:11:55.377Z,100.00
2022-10-15T21:14:22.159Z,100.00
2022-10-15T21:16:48.771Z,100.00
2022-10-15T21:19:16.297Z,100.00
2022-10-15T21:21:43.108Z,100.00
2022-10-15T21:24:10.505Z,100.00
2022-10-15T21:26:37.424Z,100.00
2022-10-15T21:29:04.166Z,100.00
2022-10-15T21:31:31.415Z,100.00
2022-10-15T21:33:58.439Z,100.00
2022-10-15T21:36:27.824Z,100.00
2022-10-15T21:39:00.004Z,100.00
2022-10-15T21:41:30.602Z,100.00
2022-10-15T21:43:59.207Z,100.00
2022-10-15T21:46:27.917Z,100.00
2022-10-15T21:48:54.740Z,100.00
2022-10-15T21:51:27.014Z,100.00
2022-10-15T21:53:55.187Z,100.00
2022-10-15T21:56:23.182Z,100.00
2022-10-15T21:58:50.159Z,100.00
2022-10-15T22:01:20.813Z,100.00
2022-10-15T22:03:52.227Z,100.00
2022-10-15T22:06:20.896Z,100.00
2022-10-15T22:08:48.177Z,100.00
2022-10-15T22:13:59.119Z,100.00
2022-10-15T22:16:27.316Z,100.00
2022-10-15T22:18:56.868Z,100.00
2022-10-15T22:21:29.119Z,100.00
2022-10-15T22:24:03.273Z,100.00
2022-10-15T22:26:33.555Z,100.00
2022-10-15T22:29:02.390Z,100.00
2022-10-15T22:31:30.835Z,100.00
2022-10-15T22:33:58.584Z,100.00
2022-10-15T22:36:27.647Z,100.00
2022-10-15T22:38:56.764Z,100.00
2022-10-15T22:41:24.313Z,100.00
2022-10-15T22:43:51.266Z,100.00
2022-10-15T22:46:18.036Z,100.00
2022-10-15T22:48:44.764Z,100.00
2022-10-15T22:51:13.746Z,100.00
2022-10-15T22:53:43.392Z,100.00
2022-10-15T22:56:16.357Z,100.00
2022-10-15T22:58:43.694Z,100.00
2022-10-15T23:01:23.497Z,100.00
2022-10-15T23:03:52.970Z,100.00
2022-10-15T23:06:20.801Z,100.00
2022-10-15T23:08:47.924Z,100.00
2022-10-15T23:11:17.965Z,100.00
2022-10-15T23:13:46.949Z,100.00
2022-10-15T23:16:18.129Z,100.00
2022-10-15T23:18:49.129Z,100.00
2022-10-15T23:21:18.471Z,100.00
2022-10-15T23:23:45.816Z,100.00
2022-10-15T23:26:15.239Z,100.00
2022-10-15T23:28:43.933Z,100.00
2022-10-15T23:31:21.701Z,100.00
2022-10-15T23:33:48.472Z,100.00
2022-10-15T23:36:15.365Z,100.00
2022-10-15T23:38:42.006Z,100.00
2022-10-15T23:41:10.527Z,100.00
2022-10-15T23:43:37.798Z,100.00
2022-10-15T23:46:04.621Z,100.00
2022-10-15T23:48:31.305Z,100.00
2022-10-15T23:51:00.968Z,100.00
2022-10-15T23:53:33.161Z,100.00
2022-10-15T23:56:02.686Z,100.00
2022-10-15T23:58:29.444Z,100.00
